createdAt,value
2019-02-21T00:00:41.423Z,23.67
2019-02-21T00:03:09.334Z,22.10
2019-02-21T00:05:38.768Z,23.52
2019-02-21T00:08:07.000Z,23.62
2019-02-21T00:10:35.271Z,23.38
2019-02-21T00:13:03.233Z,24.30
2019-02-21T00:15:31.107Z,23.50
2019-02-21T00:17:59.336Z,25.50
2019-02-21T00:20:27.063Z,23.32
2019-02-21T00:22:55.867Z,22.67
2019-02-21T00:25:23.797Z,23.10
2019-02-21T00:27:51.649Z,23.30
2019-02-21T00:30:19.529Z,23.02
2019-02-21T00:32:47.338Z,23.60
2019-02-21T00:35:15.976Z,22.82
2019-02-21T00:37:44.821Z,25.40
2019-02-21T00:40:15.441Z,23.73
2019-02-21T00:42:43.368Z,24.77
2019-02-21T00:45:11.439Z,25.68
2019-02-21T00:47:39.473Z,24.30
2019-02-21T00:50:07.274Z,25.95
2019-02-21T00:52:35.190Z,23.10
2019-02-21T00:55:03.242Z,25.37
2019-02-21T00:57:30.940Z,24.07
2019-02-21T00:59:59.307Z,24.27
2019-02-21T01:02:27.038Z,25.77
2019-02-21T01:04:54.975Z,25.68
2019-02-21T01:07:22.708Z,25.27
2019-02-21T01:09:50.699Z,26.37
2019-02-21T01:12:18.727Z,25.10
2019-02-21T01:14:46.556Z,26.52
2019-02-21T01:17:14.322Z,26.30
2019-02-21T01:19:42.690Z,25.40
2019-02-21T01:22:12.227Z,27.10
2019-02-21T01:24:40.490Z,27.65
2019-02-21T01:27:08.200Z,28.25
2019-02-21T01:29:35.869Z,27.02
2019-02-21T01:32:03.879Z,28.62
2019-02-21T01:34:31.911Z,27.58
2019-02-21T01:36:59.627Z,27.77
2019-02-21T01:39:28.051Z,28.35
2019-02-21T01:41:55.819Z,30.70
2019-02-21T01:44:25.688Z,26.70
2019-02-21T01:46:53.374Z,28.85
2019-02-21T01:49:21.427Z,27.35
2019-02-21T01:51:49.361Z,27.05
2019-02-21T01:54:17.313Z,25.88
2019-02-21T01:56:45.091Z,25.15
2019-02-21T01:59:19.082Z,26.42
2019-02-21T02:01:50.127Z,25.60
2019-02-21T02:04:18.066Z,26.20
2019-02-21T02:06:46.847Z,24.60
2019-02-21T02:09:14.795Z,23.15
2019-02-21T02:11:42.514Z,23.40
2019-02-21T02:14:10.412Z,26.20
2019-02-21T02:16:38.223Z,24.92
2019-02-21T02:19:09.411Z,22.67
2019-02-21T02:21:37.244Z,25.10
2019-02-21T02:24:05.179Z,25.15
2019-02-21T02:26:33.456Z,24.65
2019-02-21T02:29:06.208Z,25.27
2019-02-21T02:31:36.589Z,23.47
2019-02-21T02:34:10.338Z,25.12
2019-02-21T02:36:38.342Z,23.25
2019-02-21T02:39:08.396Z,21.93
2019-02-21T02:41:36.760Z,22.25
2019-02-21T02:44:04.827Z,22.37
2019-02-21T02:46:33.099Z,22.45
2019-02-21T02:49:03.138Z,20.77
2019-02-21T02:51:30.955Z,22.60
2019-02-21T02:53:58.738Z,21.73
2019-02-21T02:56:26.663Z,22.17
2019-02-21T02:59:00.609Z,22.95
2019-02-21T03:01:34.769Z,25.43
2019-02-21T03:04:00.461Z,24.25
2019-02-21T03:06:28.117Z,23.32
2019-02-21T03:08:56.278Z,22.73
2019-02-21T03:11:24.030Z,22.35
2019-02-21T03:13:52.074Z,23.95
2019-02-21T03:16:19.789Z,22.98
2019-02-21T03:18:47.738Z,22.48
2019-02-21T03:21:15.557Z,22.35
2019-02-21T03:23:44.251Z,24.12
2019-02-21T03:26:11.918Z,24.43
2019-02-21T03:28:40.459Z,24.10
2019-02-21T03:31:10.234Z,24.45
2019-02-21T03:33:41.785Z,23.92
2019-02-21T03:36:12.324Z,24.25
2019-02-21T03:38:41.053Z,24.52
2019-02-21T03:41:09.105Z,24.18
2019-02-21T03:43:37.026Z,24.72
2019-02-21T03:46:06.104Z,24.67
2019-02-21T03:48:33.942Z,22.82
2019-02-21T03:51:01.738Z,24.00
2019-02-21T03:53:31.384Z,22.35
2019-02-21T03:55:59.299Z,23.77
2019-02-21T03:58:28.057Z,25.23
2019-02-21T04:00:56.376Z,23.22
2019-02-21T04:03:24.401Z,24.00
2019-02-21T04:05:53.736Z,20.77
2019-02-21T04:08:21.759Z,21.57
2019-02-21T04:10:50.523Z,20.97
2019-02-21T04:13:25.594Z,21.07
2019-02-21T04:15:54.046Z,19.62
2019-02-21T04:18:23.154Z,21.85
2019-02-21T04:20:50.979Z,20.88
2019-02-21T04:23:19.986Z,19.23
2019-02-21T04:25:47.992Z,20.57
2019-02-21T04:28:15.735Z,19.32
2019-02-21T04:30:44.018Z,18.67
2019-02-21T04:33:14.739Z,19.20
2019-02-21T04:35:42.707Z,19.60
2019-02-21T04:38:10.480Z,18.17
2019-02-21T04:40:38.429Z,19.75
2019-02-21T04:43:06.257Z,17.75
2019-02-21T04:45:34.170Z,17.60
2019-02-21T04:48:03.186Z,17.82
2019-02-21T04:50:30.903Z,18.20
2019-02-21T04:52:58.940Z,17.27
2019-02-21T04:55:27.215Z,17.85
2019-02-21T04:57:55.124Z,18.48
2019-02-21T05:00:22.901Z,18.07
2019-02-21T05:02:51.617Z,17.40
2019-02-21T05:05:19.535Z,18.90
2019-02-21T05:07:48.739Z,18.73
2019-02-21T05:10:16.845Z,17.50
2019-02-21T05:12:45.110Z,17.77
2019-02-21T05:15:14.133Z,18.02
2019-02-21T05:17:42.168Z,19.48
2019-02-21T05:20:09.901Z,17.70
2019-02-21T05:22:37.907Z,18.92
2019-02-21T05:25:05.959Z,17.42
2019-02-21T05:58:24.443Z,21.15
2019-02-21T06:01:21.767Z,19.57
2019-02-21T06:04:09.328Z,18.50
2019-02-21T06:07:15.173Z,19.60
2019-02-21T06:09:52.028Z,18.80
2019-02-21T06:12:42.442Z,19.37
2019-02-21T06:15:38.787Z,20.43
2019-02-21T06:18:26.213Z,18.50
2019-02-21T06:21:14.217Z,20.05
2019-02-21T06:23:49.229Z,22.27
2019-02-21T06:26:24.850Z,21.68
2019-02-21T06:29:00.232Z,21.85
2019-02-21T06:31:29.200Z,22.13
2019-02-21T06:33:56.968Z,20.40
2019-02-21T06:36:26.960Z,21.52
2019-02-21T06:38:54.740Z,22.35
2019-02-21T06:41:22.642Z,22.07
2019-02-21T06:43:52.605Z,21.90
2019-02-21T06:46:20.381Z,22.58
2019-02-21T06:48:48.308Z,21.30
2019-02-21T06:51:16.081Z,22.13
2019-02-21T06:53:44.058Z,21.15
2019-02-21T06:56:11.722Z,22.87
2019-02-21T06:58:42.092Z,22.27
2019-02-21T07:01:10.455Z,22.98
2019-02-21T07:03:40.785Z,23.07
2019-02-21T07:06:08.492Z,23.50
2019-02-21T07:08:37.324Z,22.80
2019-02-21T07:11:06.603Z,22.75
2019-02-21T07:13:35.921Z,22.22
2019-02-21T07:16:03.844Z,22.35
2019-02-21T07:18:31.624Z,23.05
2019-02-21T07:20:59.919Z,23.02
2019-02-21T07:23:27.950Z,22.17
2019-02-21T07:25:59.005Z,22.65
2019-02-21T07:28:27.863Z,23.35
2019-02-21T07:30:57.184Z,23.25
2019-02-21T07:33:28.699Z,24.25
2019-02-21T07:35:54.980Z,23.85
2019-02-21T07:38:22.668Z,23.67
2019-02-21T07:40:50.749Z,22.48
2019-02-21T07:43:20.639Z,23.27
2019-02-21T07:45:49.269Z,24.20
2019-02-21T07:48:17.147Z,23.90
2019-02-21T07:50:45.046Z,24.07
2019-02-21T07:53:12.825Z,22.35
2019-02-21T07:55:40.767Z,24.63
2019-02-21T07:58:08.468Z,25.60
2019-02-21T08:00:36.487Z,23.60
2019-02-21T08:03:04.340Z,23.50
2019-02-21T08:05:33.458Z,25.27
2019-02-21T08:08:01.285Z,24.40
2019-02-21T08:10:33.654Z,24.98
2019-02-21T08:12:59.036Z,23.35
2019-02-21T08:15:28.001Z,23.90
2019-02-21T08:17:56.020Z,23.75
2019-02-21T08:20:33.674Z,23.92
2019-02-21T08:22:53.781Z,24.18
2019-02-21T08:25:21.696Z,21.45
2019-02-21T08:27:49.398Z,21.75
2019-02-21T08:30:17.665Z,24.70
2019-02-21T08:33:08.772Z,22.03
2019-02-21T08:35:36.518Z,24.13
2019-02-21T08:38:04.388Z,23.63
2019-02-21T08:40:32.226Z,19.87
2019-02-21T08:43:00.330Z,19.97
2019-02-21T08:45:28.345Z,23.53
2019-02-21T08:47:55.997Z,19.60
2019-02-21T08:50:24.079Z,18.00
2019-02-21T08:52:52.120Z,17.63
2019-02-21T08:55:19.863Z,18.87
2019-02-21T08:57:47.704Z,18.23
2019-02-21T09:00:16.433Z,18.43
2019-02-21T09:02:45.662Z,17.80
2019-02-21T09:05:14.905Z,16.73
2019-02-21T09:07:42.976Z,17.00
2019-02-21T09:10:11.486Z,16.60
2019-02-21T09:12:39.890Z,18.33
2019-02-21T09:15:10.634Z,17.27
2019-02-21T09:17:38.347Z,17.93
2019-02-21T09:20:07.248Z,16.83
2019-02-21T09:22:34.924Z,18.37
2019-02-21T09:25:03.142Z,17.83
2019-02-21T09:27:30.867Z,18.67
2019-02-21T09:30:05.182Z,15.80
2019-02-21T09:32:33.836Z,16.13
2019-02-21T09:35:01.706Z,16.27
2019-02-21T09:37:29.626Z,15.47
2019-02-21T09:39:57.384Z,15.60
2019-02-21T09:42:25.332Z,15.73
2019-02-21T09:44:53.100Z,15.50
2019-02-21T09:47:21.027Z,14.13
2019-02-21T09:49:48.852Z,16.40
2019-02-21T09:52:16.775Z,15.60
2019-02-21T09:54:47.280Z,15.20
2019-02-21T09:57:14.177Z,15.43
2019-02-21T09:59:41.931Z,13.20
2019-02-21T10:02:09.897Z,13.70
2019-02-21T10:04:37.676Z,14.03
2019-02-21T10:07:05.630Z,14.60
2019-02-21T10:09:34.660Z,15.67
2019-02-21T10:12:03.008Z,16.17
2019-02-21T10:14:32.134Z,15.57
2019-02-21T10:17:00.280Z,15.53
2019-02-21T10:19:28.268Z,15.87
2019-02-21T10:21:56.126Z,15.20
2019-02-21T10:24:23.872Z,14.70
2019-02-21T10:26:51.812Z,14.60
2019-02-21T10:29:19.600Z,14.23
2019-02-21T10:31:47.573Z,13.67
2019-02-21T10:34:15.745Z,13.70
2019-02-21T10:36:43.699Z,13.77
2019-02-21T10:39:11.605Z,14.90
2019-02-21T10:41:39.422Z,14.50
2019-02-21T10:44:07.271Z,14.87
2019-02-21T10:46:35.340Z,13.80
2019-02-21T10:49:03.655Z,13.47
2019-02-21T10:51:31.805Z,15.13
2019-02-21T10:53:59.613Z,13.70
2019-02-21T10:56:27.475Z,12.90
2019-02-21T10:58:55.406Z,13.77
2019-02-21T11:01:23.173Z,14.70
2019-02-21T11:03:51.011Z,14.57
2019-02-21T11:06:19.109Z,13.03
2019-02-21T11:08:47.161Z,14.47
2019-02-21T11:11:17.094Z,14.10
2019-02-21T11:13:44.964Z,14.17
2019-02-21T11:16:12.769Z,13.67
2019-02-21T11:18:41.164Z,13.90
2019-02-21T11:21:08.917Z,13.70
2019-02-21T11:23:38.061Z,13.00
2019-02-21T11:26:05.744Z,15.37
2019-02-21T11:28:33.821Z,14.20
2019-02-21T11:31:01.616Z,15.73
2019-02-21T11:33:29.532Z,14.20
2019-02-21T11:35:58.336Z,13.80
2019-02-21T11:38:26.190Z,14.00
2019-02-21T11:40:55.596Z,12.55
2019-02-21T11:43:23.509Z,12.15
2019-02-21T11:45:55.301Z,11.75
2019-02-21T11:48:21.666Z,12.10
2019-02-21T11:50:49.444Z,13.38
2019-02-21T11:53:17.818Z,13.75
2019-02-21T11:55:46.246Z,14.03
2019-02-21T11:58:14.043Z,12.35
2019-02-21T12:00:41.807Z,12.90
2019-02-21T12:03:10.865Z,11.73
2019-02-21T12:05:38.771Z,13.40
2019-02-21T12:08:10.920Z,13.15
2019-02-21T12:10:39.798Z,13.38
2019-02-21T12:13:08.845Z,14.38
2019-02-21T12:15:36.558Z,12.70
2019-02-21T12:18:04.321Z,12.15
2019-02-21T12:20:32.597Z,13.60
2019-02-21T12:23:01.067Z,13.03
2019-02-21T12:25:28.719Z,12.78
2019-02-21T12:27:56.504Z,13.22
2019-02-21T12:30:24.584Z,12.00
2019-02-21T12:32:52.674Z,12.73
2019-02-21T12:35:29.235Z,13.85
2019-02-21T12:37:50.384Z,12.73
2019-02-21T12:40:18.477Z,13.08
2019-02-21T12:42:46.609Z,12.03
2019-02-21T12:45:16.258Z,12.75
2019-02-21T12:47:50.835Z,12.55
2019-02-21T12:50:17.617Z,12.13
2019-02-21T12:52:48.697Z,12.05
2019-02-21T12:55:27.054Z,12.03
2019-02-21T12:57:51.947Z,11.43
2019-02-21T13:00:19.803Z,12.50
2019-02-21T13:02:52.867Z,12.75
2019-02-21T13:05:20.759Z,12.85
2019-02-21T13:07:48.755Z,12.05
2019-02-21T13:10:17.409Z,11.40
2019-02-21T13:12:45.484Z,10.82
2019-02-21T13:15:13.793Z,11.60
2019-02-21T13:17:41.996Z,10.68
2019-02-21T13:20:10.383Z,10.80
2019-02-21T13:22:38.213Z,10.20
2019-02-21T13:25:06.830Z,10.82
2019-02-21T13:27:34.738Z,12.05
2019-02-21T13:30:03.822Z,10.35
2019-02-21T13:32:32.970Z,11.68
2019-02-21T13:35:05.221Z,11.43
2019-02-21T13:37:33.170Z,10.38
2019-02-21T13:40:01.142Z,10.93
2019-02-21T13:42:29.277Z,10.90
2019-02-21T13:44:56.962Z,9.80
2019-02-21T13:47:25.046Z,10.93
2019-02-21T13:49:53.000Z,10.53
2019-02-21T13:52:20.781Z,11.83
2019-02-21T13:54:51.166Z,9.18
2019-02-21T13:57:18.984Z,11.78
2019-02-21T13:59:46.903Z,10.60
2019-02-21T14:02:16.412Z,10.35
2019-02-21T14:04:44.151Z,11.75
2019-02-21T14:07:14.171Z,10.90
2019-02-21T14:09:42.074Z,10.60
2019-02-21T14:12:10.766Z,12.15
2019-02-21T14:14:38.540Z,13.08
2019-02-21T14:17:06.463Z,13.95
2019-02-21T14:19:34.677Z,12.50
2019-02-21T14:22:02.626Z,11.65
2019-02-21T14:24:36.927Z,12.37
2019-02-21T14:29:39.181Z,11.28
2019-02-21T14:32:02.343Z,11.18
2019-02-21T14:34:30.147Z,11.25
2019-02-21T14:36:57.830Z,12.90
2019-02-21T14:39:25.919Z,12.68
2019-02-21T14:41:53.672Z,11.03
2019-02-21T14:44:22.420Z,17.37
2019-02-21T14:46:50.435Z,13.78
2019-02-21T14:49:25.736Z,13.70
2019-02-21T14:51:53.848Z,11.70
2019-02-21T14:54:21.651Z,12.60
2019-02-21T14:56:49.450Z,12.47
2019-02-21T14:59:19.987Z,14.18
2019-02-21T15:01:48.082Z,13.48
2019-02-21T15:04:16.407Z,12.43
2019-02-21T15:06:44.340Z,12.30
2019-02-21T15:09:12.169Z,13.20
2019-02-21T15:11:40.039Z,13.90
2019-02-21T15:14:09.047Z,15.03
2019-02-21T15:16:36.966Z,11.33
2019-02-21T15:19:06.039Z,11.88
2019-02-21T15:21:34.192Z,11.40
2019-02-21T15:24:09.150Z,11.22
2019-02-21T15:26:37.039Z,11.40
2019-02-21T15:29:05.397Z,13.53
2019-02-21T15:31:33.087Z,11.05
2019-02-21T15:34:01.064Z,12.63
2019-02-21T15:36:37.983Z,13.03
2019-02-21T15:38:58.826Z,13.05
2019-02-21T15:41:26.619Z,12.28
2019-02-21T15:43:55.824Z,13.60
2019-02-21T15:46:26.333Z,15.55
2019-02-21T15:48:54.583Z,15.20
2019-02-21T15:51:22.678Z,13.53
2019-02-21T15:53:50.353Z,13.55
2019-02-21T15:56:18.330Z,15.30
2019-02-21T15:58:46.304Z,13.60
2019-02-21T16:01:15.287Z,14.75
2019-02-21T16:03:44.971Z,14.20
2019-02-21T16:06:13.057Z,14.33
2019-02-21T16:08:41.015Z,14.00
2019-02-21T16:11:10.430Z,15.70
2019-02-21T16:13:38.347Z,13.18
2019-02-21T16:16:07.088Z,15.23
2019-02-21T16:18:34.988Z,15.50
2019-02-21T16:21:03.304Z,17.87
2019-02-21T16:23:30.976Z,17.75
2019-02-21T16:25:58.922Z,19.37
2019-02-21T16:28:26.611Z,16.93
2019-02-21T16:30:54.669Z,18.00
2019-02-21T16:33:22.550Z,18.32
2019-02-21T16:35:50.325Z,16.05
2019-02-21T16:38:18.304Z,16.15
2019-02-21T16:40:45.978Z,15.80
2019-02-21T16:43:14.062Z,15.85
2019-02-21T16:45:46.331Z,14.65
2019-02-21T16:48:11.784Z,14.87
2019-02-21T16:50:39.579Z,14.60
2019-02-21T16:53:07.575Z,16.45
2019-02-21T16:55:35.397Z,16.23
2019-02-21T16:58:03.198Z,17.75
2019-02-21T17:00:47.442Z,15.95
2019-02-21T17:03:01.005Z,16.07
2019-02-21T17:05:30.118Z,18.02
2019-02-21T17:07:57.965Z,18.15
2019-02-21T17:10:25.892Z,18.90
2019-02-21T17:12:56.587Z,21.27
2019-02-21T17:15:24.457Z,18.98
2019-02-21T17:17:52.274Z,21.82
2019-02-21T17:20:20.236Z,23.92
2019-02-21T17:22:47.929Z,24.55
2019-02-21T17:25:16.055Z,27.93
2019-02-21T17:27:43.834Z,27.37
2019-02-21T17:30:14.181Z,28.32
2019-02-21T17:32:41.931Z,31.40
2019-02-21T17:35:09.873Z,38.33
2019-02-21T17:37:38.945Z,32.85
2019-02-21T17:40:08.603Z,27.62
2019-02-21T17:42:36.302Z,29.35
2019-02-21T17:45:05.721Z,26.05
2019-02-21T17:47:33.670Z,23.70
2019-02-21T17:50:01.509Z,26.30
2019-02-21T17:52:31.763Z,24.30
2019-02-21T17:55:00.240Z,23.47
2019-02-21T17:57:28.791Z,22.48
2019-02-21T17:59:56.708Z,22.58
2019-02-21T18:02:24.406Z,22.80
2019-02-21T18:04:52.439Z,21.80
2019-02-21T18:07:20.509Z,23.50
2019-02-21T18:09:48.594Z,19.50
2019-02-21T18:12:17.053Z,20.23
2019-02-21T18:14:45.124Z,18.70
2019-02-21T18:17:12.939Z,20.32
2019-02-21T18:19:40.867Z,19.62
2019-02-21T18:22:09.227Z,18.90
2019-02-21T18:24:41.090Z,20.00
2019-02-21T18:27:08.883Z,18.67
2019-02-21T18:29:36.575Z,18.85
2019-02-21T18:32:06.367Z,20.68
2019-02-21T18:34:35.530Z,21.70
2019-02-21T18:37:03.390Z,19.75
2019-02-21T18:39:31.323Z,20.17
2019-02-21T18:41:59.390Z,20.08
2019-02-21T18:44:27.164Z,18.70
2019-02-21T18:46:57.238Z,20.65
2019-02-21T18:49:27.102Z,21.12
2019-02-21T18:51:55.023Z,19.55
2019-02-21T18:54:22.974Z,18.25
2019-02-21T18:56:50.682Z,17.77
2019-02-21T18:59:31.108Z,17.67
2019-02-21T19:01:50.622Z,18.48
2019-02-21T19:04:21.956Z,17.92
2019-02-21T19:06:50.297Z,18.57
2019-02-21T19:09:19.085Z,19.90
2019-02-21T19:11:47.237Z,19.30
2019-02-21T19:14:21.153Z,20.32
2019-02-21T19:16:49.173Z,21.17
2019-02-21T19:19:16.907Z,21.45
2019-02-21T19:21:44.923Z,18.90
2019-02-21T19:24:12.851Z,20.57
2019-02-21T19:26:44.108Z,24.85
2019-02-21T19:29:11.882Z,22.25
2019-02-21T19:31:39.761Z,20.70
2019-02-21T19:34:11.825Z,18.80
2019-02-21T19:36:41.440Z,21.12
2019-02-21T19:39:12.171Z,21.57
2019-02-21T19:41:41.170Z,19.50
2019-02-21T19:44:09.425Z,18.17
2019-02-21T19:46:37.960Z,18.77
2019-02-21T19:49:06.655Z,17.98
2019-02-21T19:51:34.920Z,20.68
2019-02-21T19:54:02.816Z,20.05
2019-02-21T19:56:31.918Z,20.55
2019-02-21T19:59:01.333Z,19.48
2019-02-21T20:01:29.308Z,18.70
2019-02-21T20:03:59.555Z,19.17
2019-02-21T20:06:27.537Z,19.25
2019-02-21T20:08:58.880Z,20.95
2019-02-21T20:11:26.918Z,22.62
2019-02-21T20:14:02.195Z,21.17
2019-02-21T20:16:29.875Z,21.45
2019-02-21T20:18:57.786Z,21.15
2019-02-21T20:21:25.803Z,20.10
2019-02-21T20:23:53.952Z,19.30
2019-02-21T20:26:21.698Z,19.37
2019-02-21T20:28:49.387Z,19.40
2019-02-21T20:31:17.193Z,19.27
2019-02-21T20:33:44.964Z,19.55
2019-02-21T20:36:12.723Z,17.37
2019-02-21T20:38:40.821Z,16.30
2019-02-21T20:41:08.745Z,17.00
2019-02-21T20:43:36.552Z,16.60
2019-02-21T20:46:04.379Z,15.98
2019-02-21T20:48:33.186Z,15.55
2019-02-21T20:51:01.782Z,16.62
2019-02-21T20:53:31.272Z,17.20
2019-02-21T20:55:58.936Z,17.57
2019-02-21T20:58:26.941Z,16.90
2019-02-21T21:00:54.943Z,17.35
2019-02-21T21:03:24.147Z,16.77
2019-02-21T21:05:51.893Z,18.17
2019-02-21T21:08:21.189Z,16.75
2019-02-21T21:10:49.170Z,16.80
2019-02-21T21:13:17.046Z,16.80
2019-02-21T21:15:44.715Z,16.23
2019-02-21T21:18:14.131Z,16.00
2019-02-21T21:20:41.905Z,16.15
2019-02-21T21:23:10.097Z,18.20
2019-02-21T21:25:37.877Z,16.45
2019-02-21T21:28:05.816Z,16.05
2019-02-21T21:30:33.810Z,15.95
2019-02-21T21:33:01.642Z,17.00
2019-02-21T21:35:29.908Z,16.50
2019-02-21T21:37:58.927Z,16.67
2019-02-21T21:40:26.856Z,16.48
2019-02-21T21:42:54.687Z,15.65
2019-02-21T21:45:22.623Z,19.62
2019-02-21T21:47:50.490Z,17.17
2019-02-21T21:50:18.459Z,18.62
2019-02-21T21:52:46.238Z,17.27
2019-02-21T21:55:14.866Z,17.30
2019-02-21T21:57:42.964Z,17.62
2019-02-21T22:00:14.659Z,18.20
2019-02-21T22:02:45.589Z,17.48
2019-02-21T22:05:15.340Z,16.77
2019-02-21T22:07:43.054Z,15.78
2019-02-21T22:10:11.904Z,15.88
2019-02-21T22:12:39.886Z,17.57
2019-02-21T22:15:09.097Z,16.27
2019-02-21T22:17:36.781Z,14.80
2019-02-21T22:20:04.984Z,15.85
2019-02-21T22:22:33.360Z,15.60
2019-02-21T22:25:01.154Z,15.32
2019-02-21T22:27:34.362Z,14.33
2019-02-21T22:30:02.710Z,14.83
2019-02-21T22:32:30.525Z,15.10
2019-02-21T22:34:58.437Z,16.32
2019-02-21T22:37:26.183Z,16.85
2019-02-21T22:39:54.130Z,15.05
2019-02-21T22:42:26.676Z,14.25
2019-02-21T22:44:54.749Z,15.00
2019-02-21T22:47:28.460Z,14.55
2019-02-21T22:49:56.728Z,14.85
2019-02-21T22:52:25.795Z,15.83
2019-02-21T22:54:53.948Z,15.63
2019-02-21T22:57:26.418Z,16.40
2019-02-21T22:59:55.421Z,15.83
2019-02-21T23:02:24.599Z,14.25
2019-02-21T23:05:18.392Z,16.35
2019-02-21T23:08:18.003Z,15.35
2019-02-21T23:10:46.355Z,14.25
2019-02-21T23:13:14.205Z,15.15
2019-02-21T23:15:41.996Z,15.65
2019-02-21T23:18:09.929Z,17.42
2019-02-21T23:20:37.720Z,15.75
2019-02-21T23:23:05.417Z,14.68
2019-02-21T23:25:33.498Z,16.37
2019-02-21T23:28:04.337Z,16.10
2019-02-21T23:30:32.031Z,15.25
2019-02-21T23:32:59.698Z,16.95
2019-02-21T23:35:27.458Z,17.12
2019-02-21T23:37:55.210Z,14.98
2019-02-21T23:40:23.972Z,15.50
2019-02-21T23:42:51.878Z,15.68
2019-02-21T23:45:20.049Z,14.10
2019-02-21T23:47:49.936Z,15.53
2019-02-21T23:50:19.548Z,17.70
2019-02-21T23:52:47.338Z,18.73
2019-02-21T23:55:15.642Z,16.25
2019-02-21T23:57:43.577Z,18.60
